Time;durP1;ratioP1;P1;durP2;ratioP2;P2;SDS_P1;SDS_P2;PMS_P1;PMS_P2;Temp;Humidity;BMP_temperature;BMP_pressure;BME280_temperature;BME280_humidity;BME280_pressure;Samples;Min_cycle;Max_cycle;Signal;HPM_P1;HPM_P2
2021/06/16 00:00:02;;;;;;;16.15;11.02;;;;;;;18.08;80.10;99092.19;5035144;28;20371;-72
2021/06/16 00:02:38;;;;;;;13.80;10.13;;;;;;;18.05;80.16;99089.03;5022568;28;20044;-74
2021/06/16 00:05:05;;;;;;;15.13;10.82;;;;;;;17.98;80.31;99083.59;5015522;28;20359;-73
2021/06/16 00:07:31;;;;;;;18.08;10.85;;;;;;;18.01;79.60;99093.09;5015254;28;20048;-72
2021/06/16 00:10:17;;;;;;;15.60;10.13;;;;;;;18.02;79.50;99090.25;5015302;28;20041;-72
2021/06/16 00:12:43;;;;;;;18.30;10.73;;;;;;;18.00;79.21;99092.25;5030106;28;20038;-73
2021/06/16 00:15:27;;;;;;;15.93;10.20;;;;;;;17.97;79.22;99089.97;5015374;28;20038;-71
2021/06/16 00:17:54;;;;;;;17.63;9.73;;;;;;;17.94;79.17;99087.63;5014901;28;20414;-72
2021/06/16 00:20:19;;;;;;;16.40;10.32;;;;;;;17.92;79.47;99087.78;5014723;28;20038;-73
2021/06/16 00:22:45;;;;;;;18.50;10.55;;;;;;;17.88;79.61;99088.31;5014676;28;20483;-75
2021/06/16 00:25:11;;;;;;;15.23;10.13;;;;;;;17.85;79.88;99092.19;5014603;28;20087;-71
2021/06/16 00:27:37;;;;;;;15.98;10.10;;;;;;;17.82;79.72;99097.91;5014474;28;20490;-71
2021/06/16 00:30:06;;;;;;;15.57;9.57;;;;;;;17.77;79.94;99093.09;5013348;28;20382;-73
2021/06/16 00:32:32;;;;;;;16.98;10.15;;;;;;;17.73;80.03;99090.94;5015108;28;20041;-72
2021/06/16 00:35:01;;;;;;;19.70;9.73;;;;;;;17.72;79.72;99095.47;5014828;28;20085;-70
2021/06/16 00:37:27;;;;;;;19.05;9.60;;;;;;;17.68;79.62;99087.97;5014704;28;20115;-71
2021/06/16 00:39:53;;;;;;;15.88;9.18;;;;;;;17.69;78.86;99095.00;5014343;28;20465;-71
2021/06/16 00:42:24;;;;;;;14.95;9.07;;;;;;;17.68;78.83;99106.69;5014824;28;20460;-72
2021/06/16 00:44:50;;;;;;;14.18;9.35;;;;;;;17.65;78.41;99096.38;5014532;28;20038;-71
2021/06/16 00:47:16;;;;;;;15.38;9.55;;;;;;;17.68;77.85;99086.13;5014695;28;20061;-75
2021/06/16 00:49:42;;;;;;;13.05;8.68;;;;;;;17.76;76.95;99095.97;5014369;28;20057;-70
2021/06/16 00:52:08;;;;;;;14.65;9.05;;;;;;;17.76;76.87;99094.09;5014538;28;20100;-72
2021/06/16 00:54:34;;;;;;;14.07;8.80;;;;;;;17.75;76.66;99083.59;5014226;28;20475;-74
2021/06/16 00:57:01;;;;;;;10.68;7.88;;;;;;;17.74;75.96;99087.28;5014513;28;20578;-71
2021/06/16 00:59:36;;;;;;;12.10;7.70;;;;;;;17.80;75.39;99094.56;5013910;28;20378;-74
2021/06/16 01:02:03;;;;;;;13.07;8.25;;;;;;;17.82;74.86;99084.53;5020370;28;20068;-71
2021/06/16 01:04:29;;;;;;;9.70;7.70;;;;;;;17.83;74.22;99083.53;5032981;28;20044;-74
2021/06/16 01:06:59;;;;;;;14.45;8.13;;;;;;;17.85;74.02;99089.50;5032616;28;20493;-71
2021/06/16 01:09:32;;;;;;;11.07;7.80;;;;;;;17.87;73.83;99092.84;5032903;28;20482;-72
2021/06/16 01:12:13;;;;;;;12.23;7.75;;;;;;;17.92;73.38;99089.66;5033816;28;20037;-71
2021/06/16 01:14:48;;;;;;;10.88;7.43;;;;;;;17.92;73.12;99084.28;5032596;28;20037;-71
2021/06/16 01:17:19;;;;;;;12.07;7.85;;;;;;;17.93;72.89;99081.44;5033681;28;20037;-71
2021/06/16 01:19:51;;;;;;;11.05;7.45;;;;;;;17.94;72.51;99087.63;5032500;28;20033;-71
2021/06/16 01:22:37;;;;;;;11.73;8.30;;;;;;;17.95;72.33;99084.75;5005644;28;20088;-73
2021/06/16 01:25:08;;;;;;;11.75;8.13;;;;;;;17.95;72.46;99084.75;4976827;28;20053;-71
2021/06/16 01:27:35;;;;;;;10.73;7.75;;;;;;;17.98;72.34;99088.94;5009441;28;20038;-72
2021/06/16 01:30:03;;;;;;;13.40;8.07;;;;;;;18.01;71.74;99087.75;5013733;28;20042;-71
2021/06/16 01:32:30;;;;;;;11.50;8.18;;;;;;;18.05;71.84;99094.41;5013729;28;20042;-71
2021/06/16 01:34:56;;;;;;;11.50;7.82;;;;;;;18.02;71.85;99089.41;5012899;28;20129;-71
2021/06/16 01:37:22;;;;;;;10.20;7.78;;;;;;;18.02;71.85;99097.44;5012407;28;20084;-72
2021/06/16 01:39:47;;;;;;;13.27;7.90;;;;;;;18.01;71.88;99085.09;5013292;28;20037;-72
2021/06/16 01:42:18;;;;;;;11.18;7.50;;;;;;;18.02;71.60;99092.91;5012467;28;20034;-73
2021/06/16 01:44:44;;;;;;;8.07;6.75;;;;;;;18.05;71.35;99094.41;5003107;28;20034;-71
2021/06/16 01:47:10;;;;;;;10.43;7.18;;;;;;;18.06;71.07;99094.22;4993656;28;20042;-71
2021/06/16 01:49:37;;;;;;;9.13;6.85;;;;;;;18.08;71.12;99094.88;4993819;28;20101;-69
2021/06/16 01:52:04;;;;;;;11.52;6.85;;;;;;;18.11;70.97;99096.34;4992425;28;20030;-68
2021/06/16 01:54:30;;;;;;;9.15;7.35;;;;;;;18.15;70.55;99097.63;4993621;28;20092;-70
2021/06/16 01:56:57;;;;;;;9.57;6.40;;;;;;;18.17;70.50;99102.81;4993665;28;20061;-69
2021/06/16 01:59:24;;;;;;;9.80;6.72;;;;;;;18.18;70.39;99105.31;4976236;28;20092;-71
2021/06/16 02:01:50;;;;;;;11.15;6.53;;;;;;;18.18;70.42;99105.31;5009779;28;20025;-73
2021/06/16 02:04:16;;;;;;;9.35;6.60;;;;;;;18.19;70.11;99101.59;5031977;28;20037;-71
2021/06/16 02:06:44;;;;;;;10.60;6.38;;;;;;;18.22;70.07;99111.97;5016438;28;20026;-72
2021/06/16 02:09:12;;;;;;;10.70;6.32;;;;;;;18.23;70.08;99113.63;4991206;28;20080;-72
2021/06/16 02:11:39;;;;;;;11.80;6.50;;;;;;;18.21;70.42;99115.66;4991370;28;20460;-71
2021/06/16 02:14:07;;;;;;;7.63;6.10;;;;;;;18.20;70.21;99116.66;4993289;28;20048;-70
2021/06/16 02:16:47;;;;;;;8.15;6.15;;;;;;;18.20;70.39;99113.97;4992161;28;20040;-70
2021/06/16 02:19:15;;;;;;;9.35;5.88;;;;;;;18.20;70.51;99119.34;4992164;28;20046;-71
2021/06/16 02:21:41;;;;;;;6.95;6.10;;;;;;;18.20;70.59;99113.97;4993055;28;20034;-73
2021/06/16 02:24:08;;;;;;;8.85;5.82;;;;;;;18.20;70.76;99121.19;4991718;28;20056;-71
2021/06/16 02:26:35;;;;;;;8.52;6.13;;;;;;;18.17;70.96;99127.75;4993095;28;20084;-72
2021/06/16 02:29:03;;;;;;;7.63;6.45;;;;;;;18.19;71.00;99131.06;4993119;28;20078;-73
2021/06/16 02:31:29;;;;;;;8.45;5.93;;;;;;;18.19;71.46;99128.38;4993346;28;20034;-71
2021/06/16 02:33:55;;;;;;;11.38;5.93;;;;;;;18.19;71.50;99128.38;4991614;28;20339;-71
2021/06/16 02:36:22;;;;;;;9.50;6.60;;;;;;;18.21;71.27;99130.91;4992885;28;20380;-73
2021/06/16 02:38:54;;;;;;;7.70;6.18;;;;;;;18.20;71.42;99135.41;4992794;28;20117;-72
2021/06/16 02:41:21;;;;;;;8.25;6.25;;;;;;;18.22;71.54;99132.56;4992076;28;20133;-72
2021/06/16 02:43:47;;;;;;;8.18;6.18;;;;;;;18.34;71.44;99138.28;4991529;28;20126;-71
2021/06/16 02:46:13;;;;;;;8.73;6.25;;;;;;;18.49;71.19;99139.16;4991604;28;20129;-74
2021/06/16 02:48:45;;;;;;;7.50;5.88;;;;;;;18.69;70.80;99136.78;4991766;28;20085;-74
2021/06/16 02:51:12;;;;;;;7.43;6.28;;;;;;;18.88;70.41;99146.09;4991103;28;20034;-71
2021/06/16 02:53:39;;;;;;;9.05;5.78;;;;;;;19.16;69.57;99150.78;4991862;28;20042;-70
2021/06/16 02:56:05;;;;;;;8.50;6.20;;;;;;;19.33;68.88;99145.25;4992947;28;20161;-69
2021/06/16 02:58:33;;;;;;;6.82;5.40;;;;;;;19.51;68.47;99144.81;4995615;28;20171;-75
2021/06/16 03:01:00;;;;;;;6.13;5.53;;;;;;;19.65;67.83;99143.09;5009926;28;20368;-71
2021/06/16 03:03:27;;;;;;;6.95;5.60;;;;;;;19.73;67.27;99151.84;4994734;28;20046;-69
2021/06/16 03:05:54;;;;;;;8.82;5.60;;;;;;;19.84;67.10;99150.56;4994102;28;20038;-72
2021/06/16 03:08:20;;;;;;;10.30;5.57;;;;;;;19.90;66.73;99158.84;4997623;28;20541;-72
2021/06/16 03:10:47;;;;;;;8.57;5.50;;;;;;;20.03;66.47;99165.16;4991156;28;20034;-71
2021/06/16 03:13:13;;;;;;;7.47;5.00;;;;;;;20.00;66.03;99156.66;5006268;28;20285;-70
2021/06/16 03:15:44;;;;;;;6.53;5.70;;;;;;;19.92;65.87;99164.88;4991378;28;20038;-71
2021/06/16 03:18:12;;;;;;;5.60;4.72;;;;;;;20.05;65.84;99167.69;4992547;28;20169;-72
2021/06/16 03:20:38;;;;;;;7.10;5.00;;;;;;;20.08;65.40;99175.34;4992320;28;20054;-74
2021/06/16 03:23:04;;;;;;;7.00;4.53;;;;;;;20.19;65.23;99168.63;4991595;28;20038;-71
2021/06/16 03:25:31;;;;;;;6.72;4.18;;;;;;;20.29;64.10;99166.44;4996029;28;20034;-74
2021/06/16 03:27:57;;;;;;;7.40;4.25;;;;;;;20.42;63.62;99164.88;4995058;28;20062;-74
2021/06/16 03:30:23;;;;;;;5.07;4.00;;;;;;;20.49;62.43;99165.75;4995254;28;20349;-71
2021/06/16 03:32:53;;;;;;;5.63;4.25;;;;;;;20.70;62.42;99172.94;4996217;28;20041;-72
2021/06/16 03:35:19;;;;;;;7.88;3.85;;;;;;;20.83;61.51;99170.34;4995700;28;20050;-74
2021/06/16 03:37:46;;;;;;;7.85;4.15;;;;;;;21.07;60.49;99170.91;4996266;28;20152;-74
2021/06/16 03:40:13;;;;;;;5.82;3.20;;;;;;;21.22;59.50;99175.28;4994834;28;20061;-73
2021/06/16 03:42:39;;;;;;;6.55;3.80;;;;;;;;;;4994877;28;20491;-72
2021/06/16 03:45:08;;;;;;;4.82;3.65;;;;;;;21.32;59.57;99181.13;4994618;28;20035;-74
2021/06/16 03:47:35;;;;;;;5.07;3.50;;;;;;;21.45;59.20;99181.19;4996363;28;20046;-75
2021/06/16 03:50:02;;;;;;;;;;;;;;;21.67;58.54;99182.94;4996728;28;20054;-76
2021/06/16 03:52:29;;;;;;;6.63;3.08;;;;;;;21.75;58.10;99180.88;4996313;28;20386;-74
2021/06/16 03:54:56;;;;;;;8.70;3.90;;;;;;;22.35;56.91;99179.31;5006655;28;20034;-75
2021/06/16 03:57:22;;;;;;;5.85;3.30;;;;;;;23.91;52.40;99174.03;5014604;28;20463;-73
2021/06/16 03:59:49;;;;;;;6.18;3.22;;;;;;;25.41;48.46;99181.44;5014289;28;20030;-74
2021/06/16 04:02:18;;;;;;;5.00;3.30;;;;;;;26.58;45.06;99182.81;5009486;28;20038;-75
2021/06/16 04:04:45;;;;;;;7.47;3.03;;;;;;;27.33;43.45;99187.69;5001000;28;20043;-75
2021/06/16 04:07:22;;;;;;;6.90;3.85;;;;;;;27.90;41.84;99190.44;4995481;28;20558;-75
2021/06/16 04:09:50;;;;;;;5.68;2.55;;;;;;;28.38;40.58;99195.63;4996925;28;20034;-76
2021/06/16 04:12:17;;;;;;;4.93;2.60;;;;;;;28.78;39.56;99189.16;4994183;28;20054;-75
2021/06/16 04:14:44;;;;;;;4.60;2.60;;;;;;;29.27;38.73;99199.31;4995683;28;20034;-74
2021/06/16 04:17:10;;;;;;;6.00;2.65;;;;;;;29.51;38.02;99197.19;4995951;28;20056;-75
2021/06/16 04:19:36;;;;;;;5.72;2.90;;;;;;;29.80;37.32;99193.41;4995670;28;20542;-73
2021/06/16 04:22:02;;;;;;;12.20;10.93;;;;;;;30.40;35.67;99186.03;4998058;28;20038;-75
2021/06/16 04:24:28;;;;;;;5.70;3.17;;;;;;;30.35;35.57;99194.19;5001765;28;20034;-75
2021/06/16 04:26:54;;;;;;;5.22;2.30;;;;;;;30.91;34.45;99198.41;5006724;28;20068;-74
2021/06/16 04:29:20;;;;;;;3.08;2.40;;;;;;;31.09;33.76;99198.00;4995684;28;20038;-72
2021/06/16 04:31:46;;;;;;;3.08;1.98;;;;;;;30.90;34.00;99180.38;4995343;28;20069;-74
2021/06/16 04:34:12;;;;;;;3.50;2.28;;;;;;;31.57;33.17;99199.81;4994948;28;20034;-72
2021/06/16 04:36:37;;;;;;;7.82;6.40;;;;;;;32.04;31.71;99195.25;4993838;28;20422;-71
2021/06/16 04:39:03;;;;;;;4.50;2.30;;;;;;;32.04;31.79;99189.78;4994440;28;20034;-74
2021/06/16 04:41:29;;;;;;;3.20;1.83;;;;;;;32.46;31.05;99188.69;4994798;28;20378;-78
2021/06/16 04:43:55;;;;;;;3.57;2.13;;;;;;;32.83;30.23;99182.09;4995115;28;20042;-81
2021/06/16 04:46:24;;;;;;;6.20;2.40;;;;;;;33.31;29.66;99184.41;4995051;28;20038;-74
2021/06/16 04:48:50;;;;;;;3.72;2.15;;;;;;;33.46;29.43;99193.66;4995030;28;20026;-73
2021/06/16 04:51:15;;;;;;;7.90;2.20;;;;;;;33.42;28.94;99192.59;4994820;28;20042;-71
2021/06/16 04:53:41;;;;;;;8.03;2.10;;;;;;;33.68;29.30;99207.81;4994055;28;20042;-73
2021/06/16 04:56:07;;;;;;;4.23;2.10;;;;;;;34.16;28.39;99209.97;4994989;28;20042;-78
2021/06/16 04:58:33;;;;;;;3.03;1.83;;;;;;;34.43;28.08;99213.34;4994037;28;20053;-78
2021/06/16 05:00:58;;;;;;;3.13;2.13;;;;;;;33.91;27.99;99210.97;4993646;28;20037;-74
2021/06/16 05:03:24;;;;;;;3.07;1.80;;;;;;;34.02;28.06;99231.75;5030765;28;20034;-72
2021/06/16 05:05:50;;;;;;;5.47;1.67;;;;;;;33.92;28.07;99220.84;5032799;28;20214;-76
2021/06/16 05:08:16;;;;;;;5.90;1.93;;;;;;;34.21;27.64;99230.22;5032855;28;20086;-77
2021/06/16 05:10:41;;;;;;;4.33;2.00;;;;;;;34.35;27.41;99226.56;5032811;28;20095;-76
2021/06/16 05:13:07;;;;;;;4.03;1.63;;;;;;;35.93;26.25;99232.53;5032000;28;20041;-75
2021/06/16 05:15:33;;;;;;;2.30;1.47;;;;;;;36.81;24.38;99231.06;5033576;28;20099;-75
2021/06/16 05:17:59;;;;;;;3.22;1.70;;;;;;;37.41;24.29;99229.38;5032135;28;20136;-75
2021/06/16 05:20:25;;;;;;;8.88;1.90;;;;;;;37.54;23.77;99225.78;5033725;28;20358;-72
2021/06/16 05:22:52;;;;;;;6.95;1.75;;;;;;;37.89;22.86;99230.03;5033693;28;20040;-72
2021/06/16 05:25:17;;;;;;;6.57;1.92;;;;;;;38.15;22.89;99228.25;5032752;28;20490;-76
2021/06/16 05:27:44;;;;;;;2.83;1.70;;;;;;;37.85;22.24;99232.59;5033652;28;20040;-77
2021/06/16 05:30:10;;;;;;;;;;;;;;;36.24;24.20;99234.78;5033890;28;20459;-75
2021/06/16 05:32:36;;;;;;;;;;;;;;;35.68;25.02;99241.09;5033656;28;19967;-73
2021/06/16 05:35:02;;;;;;;;;;;;;;;36.28;24.39;99244.06;5033805;28;20250;-76
2021/06/16 05:37:28;;;;;;;5.47;2.95;;;;;;;37.03;23.88;99241.41;5033248;28;19917;-79
2021/06/16 05:39:54;;;;;;;4.57;1.77;;;;;;;36.54;24.48;99242.84;5033306;28;20037;-76
2021/06/16 05:42:20;;;;;;;4.55;1.70;;;;;;;37.64;23.04;99254.28;5032923;28;20414;-75
2021/06/16 05:44:45;;;;;;;4.68;1.90;;;;;;;38.33;22.55;99248.59;5033259;28;20107;-75
2021/06/16 05:47:11;;;;;;;3.85;1.83;;;;;;;38.56;22.31;99254.09;5032540;28;20033;-74
2021/06/16 05:49:37;;;;;;;3.45;1.40;;;;;;;38.85;21.80;99258.31;5033313;28;20034;-75
2021/06/16 05:52:21;;;;;;;4.90;1.77;;;;;;;39.08;21.23;99253.56;5032747;28;20524;-74
2021/06/16 05:54:47;;;;;;;6.43;1.92;;;;;;;38.45;21.78;99258.25;5033100;28;20072;-78
2021/06/16 05:57:13;;;;;;;3.70;1.88;;;;;;;38.49;21.91;99254.50;5032954;28;20033;-75
2021/06/16 05:59:39;;;;;;;4.78;2.03;;;;;;;38.22;22.12;99251.88;5033090;28;20091;-76
2021/06/16 06:02:04;;;;;;;4.15;2.10;;;;;;;38.46;22.30;99249.63;5024360;28;20441;-76
2021/06/16 06:04:30;;;;;;;5.90;1.80;;;;;;;38.81;21.68;99260.91;5013512;28;20088;-76
2021/06/16 06:06:56;;;;;;;3.97;1.60;;;;;;;39.15;21.05;99258.59;5011683;28;20040;-75
2021/06/16 06:09:22;;;;;;;2.63;1.63;;;;;;;39.41;20.48;99255.13;5011406;28;20668;-77
2021/06/16 06:11:48;;;;;;;4.70;1.70;;;;;;;38.89;21.31;99264.03;5012912;28;20471;-74
2021/06/16 06:14:14;;;;;;;4.20;1.58;;;;;;;39.11;20.81;99261.19;5012847;28;20038;-74
2021/06/16 06:16:39;;;;;;;3.28;1.50;;;;;;;37.94;21.90;99265.78;5013101;28;20042;-75
2021/06/16 06:19:05;;;;;;;3.53;1.55;;;;;;;38.28;21.22;99268.03;5011695;28;20045;-75
2021/06/16 06:21:32;;;;;;;2.63;1.33;;;;;;;39.26;20.80;99271.03;5013146;28;20053;-79
2021/06/16 06:23:59;;;;;;;3.70;1.65;;;;;;;38.26;21.54;99274.97;5011658;28;20038;-74
2021/06/16 06:26:24;;;;;;;4.85;2.28;;;;;;;37.68;22.56;99274.63;5012616;28;20069;-75
2021/06/16 06:28:51;;;;;;;5.78;1.60;;;;;;;37.32;22.77;99278.91;5012840;28;20456;-75
2021/06/16 06:31:16;;;;;;;5.68;2.17;;;;;;;38.26;21.79;99284.09;5012546;28;20124;-77
2021/06/16 06:33:42;;;;;;;3.67;1.50;;;;;;;39.46;20.70;99282.66;5012803;28;20495;-75
2021/06/16 06:36:08;;;;;;;5.80;1.70;;;;;;;39.62;20.64;99283.81;5011873;28;20057;-79
2021/06/16 06:38:34;;;;;;;4.32;2.10;;;;;;;39.52;20.68;99288.84;5012896;28;20041;-78
2021/06/16 06:41:00;;;;;;;4.68;1.70;;;;;;;39.88;20.45;99290.56;5011656;28;20042;-75
2021/06/16 06:43:27;;;;;;;3.47;1.80;;;;;;;40.73;19.48;99295.59;5012750;28;20088;-75
2021/06/16 06:45:53;;;;;;;3.67;1.70;;;;;;;41.30;19.41;99299.19;5012580;28;20038;-78
2021/06/16 06:48:19;;;;;;;9.43;5.50;;;;;;;40.90;18.45;99296.69;5012586;28;20030;-79
2021/06/16 06:50:45;;;;;;;5.00;2.08;;;;;;;39.98;20.02;99301.34;5011270;28;20041;-79
2021/06/16 06:53:10;;;;;;;5.32;2.00;;;;;;;38.70;21.55;99302.94;5012366;28;20037;-76
2021/06/16 06:55:37;;;;;;;3.75;2.20;;;;;;;40.01;19.90;99297.91;5012494;28;20037;-77
2021/06/16 06:58:03;;;;;;;5.38;1.75;;;;;;;39.69;20.29;99304.72;5011336;28;20045;-79
2021/06/16 07:00:28;;;;;;;;;;;;;;;40.49;19.18;99309.16;5012844;28;20028;-77
2021/06/16 07:02:57;;;;;;;6.55;1.70;;;;;;;40.91;18.96;99299.16;5027724;28;19913;-80
2021/06/16 07:05:24;;;;;;;5.10;1.85;;;;;;;41.22;18.58;99319.44;5031568;28;20379;-76
2021/06/16 07:07:50;;;;;;;6.35;2.20;;;;;;;39.00;20.89;99310.44;5030722;28;20460;-79
2021/06/16 07:10:15;;;;;;;5.07;1.88;;;;;;;39.85;19.90;99313.38;5032041;28;20053;-78
2021/06/16 07:12:41;;;;;;;5.63;1.65;;;;;;;40.87;18.89;99314.00;5031953;28;20037;-83
2021/06/16 07:15:09;;;;;;;3.22;1.15;;;;;;;39.93;19.96;99315.34;5030581;28;20037;-79
2021/06/16 07:17:36;;;;;;;4.57;1.63;;;;;;;37.28;22.32;99323.97;5032237;28;20033;-75
2021/06/16 07:20:04;;;;;;;3.03;1.88;;;;;;;38.22;21.32;99309.88;5031748;28;20467;-81
2021/06/16 07:22:30;;;;;;;4.25;1.70;;;;;;;39.14;20.42;99317.84;5030421;28;20034;-75
2021/06/16 07:24:56;;;;;;;3.53;1.60;;;;;;;40.78;19.10;99327.06;5032206;28;20040;-78
2021/06/16 07:27:22;;;;;;;2.85;1.15;;;;;;;39.53;20.35;99319.00;5032244;28;20455;-78
2021/06/16 07:29:48;;;;;;;3.42;1.20;;;;;;;36.26;23.64;99325.38;5032366;28;20037;-79
2021/06/16 07:32:16;;;;;;;3.53;1.58;;;;;;;34.92;25.20;99337.91;5031671;28;20034;-78
2021/06/16 07:34:41;;;;;;;2.67;1.23;;;;;;;33.88;26.18;99331.47;5032063;28;20052;-79
2021/06/16 07:37:07;;;;;;;4.55;1.60;;;;;;;33.62;26.94;99343.34;5031677;28;20390;-79
2021/06/16 07:39:33;;;;;;;2.77;1.60;;;;;;;34.19;25.96;99335.66;5031642;28;20079;-80
2021/06/16 07:41:59;;;;;;;4.10;1.80;;;;;;;36.88;23.45;99324.44;5031075;28;20357;-78
2021/06/16 07:44:26;;;;;;;1.70;1.50;;;;;;;37.98;22.41;99333.88;5031876;28;20045;-77
2021/06/16 07:46:52;;;;;;;1.88;1.50;;;;;;;38.70;21.55;99336.94;5032049;28;20311;-80
2021/06/16 07:49:18;;;;;;;5.93;3.40;;;;;;;39.68;21.08;99337.13;5030111;28;20033;-78
2021/06/16 07:51:44;;;;;;;6.60;1.83;;;;;;;39.68;19.97;99337.13;5031870;28;20036;-80
2021/06/16 07:54:13;;;;;;;3.35;1.85;;;;;;;38.26;20.70;99342.09;5013707;28;20457;-81
2021/06/16 07:56:42;;;;;;;3.25;1.17;;;;;;;38.32;21.56;99343.66;5031590;28;20045;-80
2021/06/16 07:59:08;;;;;;;5.50;1.30;;;;;;;35.67;23.72;99350.38;5030363;28;20046;-76
2021/06/16 08:01:36;;;;;;;5.53;1.98;;;;;;;33.94;26.18;99347.59;5026984;28;20430;-77
2021/06/16 08:04:02;;;;;;;5.80;1.23;;;;;;;32.39;28.45;99358.72;5010818;28;20042;-79
2021/06/16 08:06:27;;;;;;;2.38;1.63;;;;;;;33.25;27.32;99360.94;5010480;28;20034;-75
2021/06/16 08:08:53;;;;;;;3.28;1.52;;;;;;;34.89;25.40;99360.50;5012057;28;20049;-77
2021/06/16 08:11:21;;;;;;;4.13;1.80;;;;;;;37.04;22.92;99358.88;5015454;28;20125;-78
2021/06/16 08:13:47;;;;;;;3.40;1.70;;;;;;;37.21;22.20;99355.53;5015420;28;20040;-79
2021/06/16 08:16:14;;;;;;;5.10;1.85;;;;;;;38.10;21.42;99360.97;5014904;28;20040;-78
2021/06/16 08:18:40;;;;;;;2.63;1.75;;;;;;;37.21;21.99;99363.81;5014063;28;20038;-81
2021/06/16 08:21:06;;;;;;;;;;;;;;;37.45;21.40;99365.59;5015773;28;20045;-78
2021/06/16 08:23:32;;;;;;;;;;;;;;;37.76;20.88;99365.00;5015305;28;20007;-77
2021/06/16 08:26:02;;;;;;;3.25;1.75;;;;;;;37.75;21.23;99357.81;5015065;28;20289;-79
2021/06/16 08:28:28;;;;;;;2.03;1.73;;;;;;;37.38;21.60;99368.75;5013687;28;20092;-83
2021/06/16 08:30:54;;;;;;;4.60;1.45;;;;;;;37.51;21.15;99382.84;5015052;28;20037;-81
2021/06/16 08:33:21;;;;;;;3.78;1.35;;;;;;;37.13;21.26;99378.28;5015011;28;20422;-81
2021/06/16 08:35:47;;;;;;;1.38;1.20;;;;;;;37.38;21.24;99381.75;5014076;28;20058;-75
2021/06/16 08:38:12;;;;;;;2.75;1.50;;;;;;;36.70;20.87;99372.94;5014962;28;20037;-78
2021/06/16 08:40:38;;;;;;;2.90;1.45;;;;;;;36.90;20.77;99377.31;4997597;28;20038;-84
2021/06/16 08:43:04;;;;;;;2.80;1.40;;;;;;;37.30;20.33;99374.97;4997778;28;20036;-82
2021/06/16 08:45:36;;;;;;;3.33;1.08;;;;;;;35.90;21.82;99383.69;5013256;28;20383;-78
2021/06/16 08:48:02;;;;;;;2.67;1.20;;;;;;;34.90;22.34;99384.94;5015151;28;20064;-76
2021/06/16 08:50:29;;;;;;;2.70;1.52;;;;;;;34.95;22.94;99387.63;5014805;28;20069;-77
2021/06/16 08:52:54;;;;;;;4.38;1.60;;;;;;;35.44;22.57;99376.75;5014844;28;20077;-77
2021/06/16 08:55:20;;;;;;;3.10;1.20;;;;;;;34.43;23.58;99389.09;5014782;28;20407;-75
2021/06/16 08:57:47;;;;;;;5.82;1.73;;;;;;;34.12;24.59;99387.31;5013367;28;20033;-77
2021/06/16 09:00:14;;;;;;;3.53;1.20;;;;;;;32.24;26.97;99399.75;5013993;28;20349;-77
2021/06/16 09:02:40;;;;;;;3.63;1.00;;;;;;;31.40;27.99;99402.28;5027600;28;20095;-78
2021/06/16 09:05:06;;;;;;;4.17;1.20;;;;;;;31.58;27.99;99398.31;5049231;28;20041;-78
2021/06/16 09:07:33;;;;;;;2.60;1.10;;;;;;;31.66;27.25;99400.56;5033976;28;20041;-76
2021/06/16 09:10:17;;;;;;;4.15;1.08;;;;;;;31.75;27.94;99409.91;5034251;28;20076;-76
2021/06/16 09:12:57;;;;;;;1.88;1.02;;;;;;;31.26;28.10;99410.94;5033915;28;20120;-76
2021/06/16 09:15:28;;;;;;;4.88;1.55;;;;;;;32.21;27.33;99416.69;5033914;28;20041;-76
2021/06/16 09:17:58;;;;;;;4.47;1.80;;;;;;;34.70;23.73;99407.06;5032890;28;20514;-77
2021/06/16 09:20:25;;;;;;;3.17;1.67;;;;;;;35.22;22.90;99418.47;5033308;28;20033;-78
2021/06/16 09:22:51;;;;;;;;;;;;;;;35.65;21.97;99417.81;5033722;28;20037;-77
2021/06/16 09:25:22;;;;;;;4.20;1.60;;;;;;;35.88;22.24;99408.75;5032509;28;20384;-76
2021/06/16 09:27:50;;;;;;;4.63;1.30;;;;;;;36.96;21.11;99419.41;5033809;28;20034;-75
2021/06/16 09:30:19;;;;;;;4.20;1.20;;;;;;;37.11;20.08;99421.91;5033270;28;20589;-80
2021/06/16 09:32:47;;;;;;;3.40;1.15;;;;;;;36.97;20.15;99429.31;5032648;28;20466;-77
2021/06/16 09:35:19;;;;;;;5.85;1.50;;;;;;;36.10;21.00;99421.13;5033381;28;20129;-82
2021/06/16 09:37:45;;;;;;;3.58;1.40;;;;;;;36.24;21.04;99432.25;5033476;28;20047;-81
2021/06/16 09:40:12;;;;;;;1.73;1.13;;;;;;;35.12;22.61;99433.13;5033132;28;20037;-76
2021/06/16 09:42:37;;;;;;;3.10;1.35;;;;;;;36.16;22.01;99428.22;5033449;28;20037;-76
2021/06/16 09:45:04;;;;;;;2.17;1.00;;;;;;;35.43;21.64;99435.63;5033420;28;20033;-80
2021/06/16 09:47:29;;;;;;;;;;;;;;;33.18;24.15;99450.84;5033675;28;20040;-77
2021/06/16 09:49:57;;;;;;;2.53;1.10;;;;;;;32.31;25.20;99451.50;5031150;28;20011;-78
2021/06/16 09:52:37;;;;;;;2.72;1.35;;;;;;;31.93;25.44;99451.59;5033528;28;20029;-78
2021/06/16 09:55:06;;;;;;;3.40;1.30;;;;;;;32.70;25.10;99456.50;5033527;28;20033;-75
2021/06/16 09:57:33;;;;;;;1.98;1.35;;;;;;;33.76;23.44;99444.22;5033625;28;20129;-77
2021/06/16 10:00:05;;;;;;;2.97;1.73;;;;;;;33.68;23.57;99448.34;5033054;28;20482;-79
2021/06/16 10:02:40;;;;;;;2.95;1.15;;;;;;;34.20;23.39;99438.06;5020255;28;20133;-80
2021/06/16 10:05:06;;;;;;;2.95;2.10;;;;;;;33.65;23.75;99449.72;5013564;28;20490;-76
2021/06/16 10:07:33;;;;;;;3.53;1.13;;;;;;;33.46;24.01;99452.25;5009283;28;20034;-78
2021/06/16 10:10:10;;;;;;;3.72;1.35;;;;;;;33.31;24.81;99449.50;5012433;28;20056;-77
2021/06/16 10:12:38;;;;;;;3.97;1.00;;;;;;;34.45;23.12;99450.06;5011375;28;20029;-77
2021/06/16 10:15:07;;;;;;;3.03;1.23;;;;;;;34.15;23.73;99455.38;5013423;28;20117;-83
2021/06/16 10:17:32;;;;;;;5.03;1.40;;;;;;;34.78;22.75;99453.13;5011350;28;20095;-79
2021/06/16 10:19:59;;;;;;;2.33;1.20;;;;;;;34.33;22.54;99451.19;5013380;28;20045;-77
2021/06/16 10:22:25;;;;;;;2.22;1.05;;;;;;;32.23;24.34;99459.13;5013197;28;20088;-78
2021/06/16 10:24:51;;;;;;;1.47;0.80;;;;;;;31.30;25.34;99468.63;5013267;28;20038;-78
2021/06/16 10:27:27;;;;;;;4.33;1.10;;;;;;;30.05;27.17;99468.34;5012684;28;20080;-82
2021/06/16 10:29:55;;;;;;;3.35;1.27;;;;;;;30.47;26.88;99473.22;5013396;28;20173;-78
2021/06/16 10:32:21;;;;;;;3.08;1.15;;;;;;;30.94;26.88;99460.09;5012778;28;20171;-81
2021/06/16 10:34:53;;;;;;;3.28;1.13;;;;;;;31.36;25.80;99470.31;5011764;28;20081;-75
2021/06/16 10:37:34;;;;;;;3.15;1.10;;;;;;;31.55;25.34;99469.91;5012814;28;20065;-77
2021/06/16 10:40:12;;;;;;;2.80;1.02;;;;;;;32.09;24.06;99463.44;5010783;28;20034;-78
2021/06/16 10:43:09;;;;;;;2.97;0.77;;;;;;;30.35;25.74;99469.81;5011852;28;20038;-77
2021/06/16 10:45:39;;;;;;;;;;;;;;;30.76;25.76;99464.00;5012859;28;20034;-78
2021/06/16 10:48:09;;;;;;;3.53;0.70;;;;;;;30.63;25.05;99476.16;5012538;28;19951;-76
2021/06/16 10:50:47;;;;;;;2.50;0.80;;;;;;;30.44;25.31;99473.72;5012232;28;20434;-77
2021/06/16 10:53:17;;;;;;;2.88;0.70;;;;;;;30.17;24.88;99474.50;5012005;28;20132;-79
2021/06/16 10:55:52;;;;;;;2.13;0.70;;;;;;;30.09;25.58;99477.66;5012399;28;20085;-77
2021/06/16 10:58:22;;;;;;;1.88;0.90;;;;;;;29.97;25.57;99477.78;5012156;28;20033;-77
2021/06/16 11:01:06;;;;;;;3.38;0.85;;;;;;;29.73;26.06;99477.13;5012298;28;20045;-76
2021/06/16 11:03:53;;;;;;;2.50;0.90;;;;;;;29.88;26.22;99481.97;4992832;28;20975;-78
2021/06/16 11:06:37;;;;;;;2.67;0.95;;;;;;;29.85;25.68;99482.50;4992640;28;20468;-76
2021/06/16 11:09:14;;;;;;;3.33;1.02;;;;;;;29.72;25.74;99485.56;4992922;28;20081;-76
2021/06/16 11:11:49;;;;;;;2.58;0.80;;;;;;;28.94;25.73;99489.69;4992918;28;20371;-78
2021/06/16 11:14:33;;;;;;;2.28;0.77;;;;;;;28.37;27.32;99487.75;4992583;28;20049;-77
2021/06/16 11:17:03;;;;;;;3.28;0.90;;;;;;;28.52;26.82;99482.63;4992654;28;20050;-78
2021/06/16 11:19:40;;;;;;;2.90;0.93;;;;;;;28.40;27.01;99490.00;4992372;28;20034;-77
2021/06/16 11:22:12;;;;;;;;;;;;;;;28.80;26.93;99483.75;4993013;28;20061;-78
2021/06/16 11:25:00;;;;;;;3.65;1.20;;;;;;;28.93;26.09;99481.78;4992545;28;19972;-80
2021/06/16 11:27:58;;;;;;;3.38;1.30;;;;;;;29.27;25.67;99487.28;4992666;28;20077;-78
2021/06/16 11:30:42;;;;;;;2.35;1.10;;;;;;;29.33;24.82;99487.13;4991303;28;20066;-79
2021/06/16 11:33:17;;;;;;;1.83;0.80;;;;;;;29.26;24.81;99485.63;4992568;28;20043;-78
2021/06/16 11:35:59;;;;;;;4.15;0.65;;;;;;;29.23;25.18;99480.69;4992582;28;20166;-76
2021/06/16 11:38:30;;;;;;;2.25;0.63;;;;;;;28.82;25.16;99481.56;4992230;28;20038;-77